Flag for USA

Past Weather in 42°30'42.9"N, 83°31'54.4"W, USA — Yesterday and Last 2 Weeks

Currently: 28 °F. Sunny. (Weather station: Detroit City Airport, USA). See more current weather

Past Weather in 42°30'42.9"N, 83°31'54.4"W — Graph

°F

42°30'42.9"N, 83°31'54.4"W Temperature Yesterday

Maximum temperature yesterday: 38 °F (at 10:53 pm)
Minimum temperature yesterday: 23 °F (at 6:53 am)
Average temperature yesterday: 29 °F

High & Low Weather Summary for the Past Weeks

 TemperatureHumidityPressure
High50 °F (Jan 17, 11:00 am)92% (Jan 17, 5:53 am)30.35 "Hg (Jan 17, 5:53 am)
Low21 °F (Jan 15, 12:53 am)41% (Jan 14, 4:53 pm)29.46 "Hg (Jan 19, 2:03 pm)
Average35 °F74%29.92 "Hg
* Reported Jan 13 6:53 am — Jan 28 6:53 am, 42°30'42.9"N, 83°31'54.4"W. Weather by CustomWeather, © 2023

Note: Actual official high and low records may vary slightly from our data, if they occured in-between our weather recording intervals... More about our weather records

42°30'42.9"N, 83°31'54.4"W Weather History for the Previous 24 Hours

Scroll right to see more
 ConditionsComfort  
Time TempWeatherWind HumidityBarometerVisibility
6:53 am
Sat, Jan 28
29 °FClear.6 mph64%30.13 "Hg10 mi
5:53 am30 °FClear.9 mph59%30.09 "Hg10 mi
4:53 am32 °FPassing clouds.10 mph59%30.05 "Hg10 mi
3:53 am33 °FPassing clouds.15 mph54%30.03 "Hg10 mi
2:53 am34 °FOvercast.18 mph56%29.98 "Hg10 mi
1:53 am36 °FPassing clouds.16 mph59%29.93 "Hg10 mi
1:06 am38 °FMostly cloudy.18 mph63%29.85 "Hg10 mi
12:53 am38 °FOvercast.12 mph65%29.86 "Hg10 mi
11:53 pm
Fri, Jan 27
38 °FMostly cloudy.13 mph73%29.83 "Hg10 mi
11:22 pm38 °FOvercast.15 mph76%29.80 "Hg10 mi
10:53 pm38 °FMostly cloudy.18 mph76%29.81 "Hg10 mi
10:09 pm37 °FOvercast.18 mph79%29.79 "Hg10 mi
9:53 pm37 °FOvercast.17 mph79%29.80 "Hg10 mi
8:53 pm36 °FOvercast.15 mph79%29.80 "Hg6 mi
7:53 pm34 °FOvercast.21 mph82%29.80 "Hg5 mi
6:25 pm32 °FLight snow. Overcast.14 mph82%29.79 "Hg1 mi
6:00 pm32 °FLight snow. Mostly cloudy.14 mph75%29.80 "Hg2 mi
5:11 pm32 °FLight snow. Mostly cloudy.22 mph64%29.80 "Hg2 mi
4:53 pm32 °FMostly cloudy.15 mph61%29.83 "Hg10 mi
3:53 pm31 °FMostly cloudy.18 mph64%29.84 "Hg8 mi
2:53 pm31 °FSunny.20 mph61%29.86 "Hg10 mi
1:53 pm29 °FSunny.22 mph66%29.91 "Hg10 mi
12:53 pm27 °FSunny.16 mph69%29.96 "Hg10 mi
11:53 am26 °FSunny.16 mph60%30.01 "Hg10 mi
11:17 am24 °FScattered clouds.18 mph68%30.01 "Hg10 mi
10:53 am24 °FPartly sunny.15 mph71%30.04 "Hg9 mi
9:53 am23 °FPartly sunny.12 mph78%30.05 "Hg7 mi
8:53 am24 °FOvercast.13 mph75%30.05 "Hg7 mi
Weather by CustomWeather, © 2023

See weather overview